Time;durP1;ratioP1;P1;durP2;ratioP2;P2;SDS_P1;SDS_P2;PMS_P1;PMS_P2;Temp;Humidity;BMP_temperature;BMP_pressure;BME280_temperature;BME280_humidity;BME280_pressure;Samples;Min_cycle;Max_cycle;Signal;HPM_P1;HPM_P2
2022/11/06 00:00:32;;;;;;;;;;;;;;;-144.99;88.84;52427.72;5063844;28;19929;-73
2022/11/06 00:02:59;;;;;;;;;;;;;;;-144.99;89.92;52423.63;5070806;28;19980;-73
2022/11/06 00:08:10;;;;;;;;;;;;;;;-144.99;89.04;52427.72;5068312;28;19970;-74
2022/11/06 00:10:37;;;;;;;;;;;;;;;-144.99;88.73;52482.75;5065930;28;20358;-74
2022/11/06 00:13:05;;;;;;;;;;;;;;;-144.99;89.04;52391.03;5059622;28;20021;-75
2022/11/06 00:15:32;;;;;;;;;;;;;;;-144.99;89.54;52460.31;5059972;28;19954;-74
2022/11/06 00:17:58;;;;;;;;;;;;;;;-144.99;90.05;52439.94;5060654;28;20080;-73
2022/11/06 00:20:24;;;;;;;;;;;;;;;-144.99;90.27;52431.78;5071044;28;19959;-75
2022/11/06 00:22:51;;;;;;;;;;;;;;;-144.99;89.84;52419.56;5071776;28;19997;-74
2022/11/06 00:25:17;;;;;;;;;;;;;;;-144.99;90.42;52488.84;5056170;28;19945;-75
2022/11/06 00:27:44;;;;;;;;;;;;;;;-144.99;90.06;52399.19;5057732;28;19989;-75
2022/11/06 00:30:12;;;;;;;;;;;;;;;-144.99;90.07;52472.56;5058897;28;20002;-74
2022/11/06 00:32:39;;;;;;;;;;;;;;;-144.99;90.23;52415.47;5057502;28;20278;-74
2022/11/06 00:35:06;;;;;;;;;;;;;;;-144.99;89.68;52433.81;5057406;28;19948;-74
2022/11/06 00:37:33;;;;;;;;;;;;;;;-144.99;89.67;52454.22;5057372;28;19966;-75
2022/11/06 00:39:59;;;;;;;;;;;;;;;-144.99;89.49;52462.34;5056767;28;20518;-76
2022/11/06 00:42:26;;;;;;;;;;;;;;;-144.99;89.98;52435.88;5058456;28;19952;-74
2022/11/06 00:44:52;;;;;;;;;;;;;;;-144.99;90.12;52429.75;5057727;28;20044;-74
2022/11/06 00:47:20;;;;;;;;;;;;;;;-144.99;90.14;52407.31;5057187;28;20042;-73
2022/11/06 00:49:46;;;;;;;;;;;;;;;-144.99;90.60;52460.31;5057914;28;19998;-75
2022/11/06 00:52:13;;;;;;;;;;;;;;;-144.99;91.13;52427.72;5055849;28;20360;-74
2022/11/06 00:54:39;;;;;;;;;;;;;;;-144.99;92.57;52411.41;5053947;28;19949;-75
2022/11/06 00:57:05;;;;;;;;;;;;;;;-144.99;93.43;52407.31;5058327;28;20020;-74
2022/11/06 00:59:32;;;;;;;;;;;;;;;-144.99;94.10;52419.56;5057209;28;19961;-74
2022/11/06 01:01:59;;;;;;;;;;;;;;;-144.99;94.79;52419.56;5057705;28;20396;-74
2022/11/06 01:04:26;;;;;;;;;;;;;;;-144.99;95.04;52466.44;5058166;28;20404;-75
2022/11/06 01:06:55;;;;;;;;;;;;;;;-144.99;95.65;52439.94;5057812;28;20376;-72
2022/11/06 01:09:23;;;;;;;;;;;;;;;-144.99;95.20;52393.06;5056217;28;20068;-74
2022/11/06 01:11:51;;;;;;;;;;;;;;;-144.99;95.33;52444.03;5056036;28;19953;-74
2022/11/06 01:14:18;;;;;;;;;;;;;;;-144.99;96.13;52415.47;5058050;28;19984;-74
2022/11/06 01:16:45;;;;;;;;;;;;;;;-144.99;95.58;52439.94;5072218;28;19990;-75
2022/11/06 01:19:12;;;;;;;;;;;;;;;-144.99;95.37;52435.88;5064979;28;20027;-75
2022/11/06 01:21:41;;;;;;;;;;;;;;;-144.99;95.54;52452.16;5051237;28;20041;-73
2022/11/06 01:24:09;;;;;;;;;;;;;;;-144.99;95.51;52427.72;5052668;28;20451;-76
2022/11/06 01:26:36;;;;;;;;;;;;;;;-144.99;95.63;52391.03;5050464;28;20550;-75
2022/11/06 01:29:03;;;;;;;;;;;;;;;-144.99;95.14;52419.56;5047787;28;20041;-74
2022/11/06 01:31:31;;;;;;;;;;;;;;;-144.99;94.38;52415.47;5048916;28;19996;-73
2022/11/06 01:33:58;;;;;;;;;;;;;;;-144.99;94.25;52464.41;5048904;28;20404;-75
2022/11/06 01:36:28;;;;;;;;;;;;;;;-144.99;94.79;52435.88;5049995;28;19969;-75
2022/11/06 01:38:58;;;;;;;;;;;;;;;-144.99;95.23;52431.78;5048709;28;20422;-73
2022/11/06 01:41:26;;;;;;;;;;;;;;;-144.99;95.37;52382.88;5048392;28;19925;-73
2022/11/06 01:43:54;;;;;;;;;;;;;;;-144.99;95.70;52421.59;5049906;28;20055;-71
2022/11/06 01:46:21;;;;;;;;;;;;;;;-144.99;95.55;52446.06;5049049;28;20292;-75
2022/11/06 01:48:50;;;;;;;;;;;;;;;-144.99;94.91;52403.25;5048997;28;20019;-74
2022/11/06 01:51:17;;;;;;;;;;;;;;;-144.99;94.08;52413.44;5048635;28;20429;-74
2022/11/06 01:53:43;;;;;;;;;;;;;;;-144.99;93.80;52419.56;5046586;28;20086;-75
2022/11/06 01:56:13;;;;;;;;;;;;;;;-144.99;93.68;52448.09;5046817;28;20040;-73
2022/11/06 01:58:41;;;;;;;;;;;;;;;-144.99;93.69;52448.09;5049728;28;19962;-74
2022/11/06 02:01:07;;;;;;;;;;;;;;;-144.99;93.75;52431.78;5049238;28;20282;-75
2022/11/06 02:03:34;;;;;;;;;;;;;;;-144.99;93.73;52397.13;5048422;28;19972;-73
2022/11/06 02:06:01;;;;;;;;;;;;;;;-144.99;93.31;52423.63;5049800;28;20070;-74
2022/11/06 02:08:28;;;;;;;;;;;;;;;-144.99;93.63;52439.94;5049371;28;19965;-75
2022/11/06 02:10:54;;;;;;;;;;;;;;;-144.99;92.54;52419.56;5064217;28;20013;-73
2022/11/06 02:13:43;;;;;;;;;;;;;;;-144.99;92.44;52374.72;5070763;28;19975;-73
2022/11/06 02:16:14;;;;;;;;;;;;;;;-144.99;92.87;52423.63;5052226;28;19951;-74
2022/11/06 02:18:55;;;;;;;;;;;;;;;-144.99;93.48;52437.91;5048464;28;20070;-73
2022/11/06 02:21:31;;;;;;;;;;;;;;;-144.99;93.44;52423.63;5049211;28;20315;-72
2022/11/06 02:24:13;;;;;;;;;;;;;;;-144.99;93.46;52429.75;5043179;28;20031;-74
2022/11/06 02:26:52;;;;;;;;;;;;;;;-144.99;93.04;52407.31;5042754;28;20416;-74
2022/11/06 02:29:20;;;;;;;;;;;;;;;-144.99;93.28;52407.31;5048189;28;19989;-74
2022/11/06 02:31:48;;;;;;;;;;;;;;;-144.99;93.30;52433.81;5048079;28;19953;-75
2022/11/06 02:34:19;;;;;;;;;;;;;;;-144.99;92.86;52431.78;5047621;28;20420;-75
2022/11/06 02:36:47;;;;;;;;;;;;;;;-144.99;92.72;52399.19;5048572;28;20273;-73
2022/11/06 02:39:16;;;;;;;;;;;;;;;-144.99;93.31;52419.56;5047035;28;19972;-72
2022/11/06 02:41:44;;;;;;;;;;;;;;;-144.99;93.28;52423.63;5046511;28;21174;-74
2022/11/06 02:44:15;;;;;;;;;;;;;;;-144.99;95.57;52433.81;5047314;28;19924;-72
2022/11/06 02:46:43;;;;;;;;;;;;;;;-144.99;96.00;52415.47;5047758;28;19936;-73
2022/11/06 02:49:13;;;;;;;;;;;;;;;-144.99;97.00;52450.13;5047396;28;19960;-74
2022/11/06 02:51:41;;;;;;;;;;;;;;;-144.99;97.29;52435.88;5047022;28;19943;-75
2022/11/06 02:54:08;;;;;;;;;;;;;;;-144.99;97.41;52413.44;5043259;28;20359;-73
2022/11/06 02:56:36;;;;;;;;;;;;;;;-144.99;97.66;52452.16;5047952;28;20351;-73
2022/11/06 02:59:05;;;;;;;;;;;;;;;-144.99;97.29;52419.56;5047653;28;20047;-72
2022/11/06 03:01:35;;;;;;;;;;;;;;;-144.99;96.75;52431.78;5047453;28;19935;-74
2022/11/06 03:04:03;;;;;;;;;;;;;;;-144.99;96.15;52407.31;5048243;28;19993;-73
2022/11/06 03:06:33;;;;;;;;;;;;;;;-144.99;95.56;52435.88;5065991;28;19950;-75
2022/11/06 03:09:02;;;;;;;;;;;;;;;-144.99;94.90;52427.72;5070225;28;20047;-76
2022/11/06 03:11:30;;;;;;;;;;;;;;;-144.99;95.24;52448.09;5051974;28;19974;-72
2022/11/06 03:13:58;;;;;;;;;;;;;;;-144.99;94.72;52435.88;5047874;28;19943;-73
2022/11/06 03:16:32;;;;;;;;;;;;;;;-144.99;94.76;52439.94;5047923;28;20468;-73
2022/11/06 03:19:03;;;;;;;;;;;;;;;-144.99;94.20;52419.56;5047512;28;19924;-73
2022/11/06 03:21:34;;;;;;;;;;;;;;;-144.99;93.61;52429.75;5047917;28;20039;-73
2022/11/06 03:24:04;;;;;;;;;;;;;;;-144.99;93.22;52444.03;5041938;28;20016;-75
2022/11/06 03:26:32;;;;;;;;;;;;;;;-144.99;93.01;52444.03;5040327;28;19945;-74
2022/11/06 03:29:02;;;;;;;;;;;;;;;-144.99;92.63;52403.25;5046668;28;19959;-74
2022/11/06 03:31:35;;;;;;;;;;;;;;;-144.99;91.61;52427.72;5048956;28;20290;-72
2022/11/06 03:34:06;;;;;;;;;;;;;;;-144.99;91.03;52427.72;5047855;28;19953;-75
2022/11/06 03:36:34;;;;;;;;;;;;;;;-144.99;90.92;52423.63;5051214;28;20028;-74
2022/11/06 03:39:02;;;;;;;;;;;;;;;-144.99;90.51;52391.03;5049653;28;19964;-75
2022/11/06 03:41:32;;;;;;;;;;;;;;;-144.99;90.75;52395.09;5049584;28;19975;-73
2022/11/06 03:43:59;;;;;;;;;;;;;;;-144.99;89.97;52403.25;5050749;28;19943;-75
2022/11/06 03:46:26;;;;;;;;;;;;;;;-144.99;90.03;52423.63;5051635;28;19947;-75
2022/11/06 03:48:55;;;;;;;;;;;;;;;-144.99;89.51;52386.94;5050806;28;20053;-73
2022/11/06 03:51:24;;;;;;;;;;;;;;;-144.99;89.28;52399.19;5051541;28;20445;-73
2022/11/06 03:53:52;;;;;;;;;;;;;;;-144.99;89.18;52415.47;5047954;28;20049;-74
2022/11/06 03:56:22;;;;;;;;;;;;;;;-144.99;90.73;52419.56;5050149;28;19997;-73
2022/11/06 03:58:49;;;;;;;;;;;;;;;-144.99;91.43;52452.16;5051694;28;20060;-75
2022/11/06 04:01:19;;;;;;;;;;;;;;;-144.99;91.84;52448.09;5063697;28;19963;-74
2022/11/06 04:03:49;;;;;;;;;;;;;;;-144.99;91.64;52427.72;5072051;28;19924;-73
2022/11/06 04:06:17;;;;;;;;;;;;;;;-144.99;91.49;52456.25;5061089;28;19949;-73
2022/11/06 04:14:18;;;;;;;;;;;;;;;-144.99;90.62;52419.56;5050781;28;19952;-73
2022/11/06 04:16:47;;;;;;;;;;;;;;;-144.99;91.03;52411.41;5050438;28;19961;-73
2022/11/06 04:19:15;;;;;;;;;;;;;;;-144.99;90.59;52435.88;5049820;28;20435;-75
2022/11/06 04:21:45;;;;;;;;;;;;;;;-144.99;90.70;52415.47;5049704;28;19989;-77
2022/11/06 04:27:15;;;;;;;;;;;;;;;-144.99;91.72;52429.75;5049974;28;20425;-73
2022/11/06 04:29:48;;;;;;;;;;;;;;;-144.99;91.50;52427.72;5049992;28;20007;-74
2022/11/06 04:32:18;;;;;;;;;;;;;;;-144.99;91.63;52409.38;5050133;28;20023;-74
2022/11/06 04:34:47;;;;;;;;;;;;;;;-144.99;91.81;52431.78;5050035;28;19943;-75
2022/11/06 04:37:19;;;;;;;;;;;;;;;-144.99;91.82;52407.31;5050309;28;20122;-75
2022/11/06 04:39:51;;;;;;;;;;;;;;;-144.99;92.08;52439.94;5065424;22;20044;-69
2022/11/06 04:42:22;;;;;;;;;;;;;;;-144.99;91.78;52427.72;5031363;28;19925;-71
2022/11/06 04:44:50;;;;;;;;;;;;;;;-144.99;92.19;52415.47;5057318;28;19943;-73
2022/11/06 04:47:18;;;;;;;;;;;;;;;-144.99;92.04;52413.44;5043560;28;20026;-70
2022/11/06 04:49:45;;;;;;;;;;;;;;;-144.99;91.81;52386.94;5050199;28;20046;-70
2022/11/06 04:52:15;;;;;;;;;;;;;;;-144.99;91.45;52435.88;5047976;28;20052;-72
2022/11/06 04:54:42;;;;;;;;;;;;;;;-144.99;91.32;52407.31;5037793;28;19940;-72
2022/11/06 04:57:10;;;;;;;;;;;;;;;-144.99;91.20;52403.25;5037781;28;19946;-70
2022/11/06 04:59:37;;;;;;;;;;;;;;;-144.99;91.35;52423.63;5034616;28;20062;-70
2022/11/06 05:02:03;;;;;;;;;;;;;;;-144.99;92.45;52403.25;5048038;28;19988;-72
2022/11/06 05:04:30;;;;;;;;;;;;;;;-144.99;93.83;52435.88;5047907;28;20478;-70
2022/11/06 05:06:56;;;;;;;;;;;;;;;-144.99;95.11;52454.22;5058761;28;19954;-70
2022/11/06 05:09:24;;;;;;;;;;;;;;;-144.99;96.24;52439.94;5068084;28;19931;-71
2022/11/06 05:11:50;;;;;;;;;;;;;;;-144.99;96.47;52415.47;5067964;28;20052;-70
2022/11/06 05:14:18;;;;;;;;;;;;;;;-144.99;96.09;52419.56;5067601;28;20492;-69
2022/11/06 05:16:44;;;;;;;;;;;;;;;-144.99;95.81;52401.22;5067870;28;20455;-70
2022/11/06 05:19:11;;;;;;;;;;;;;;;-144.99;95.06;52403.25;5067441;28;19966;-70
2022/11/06 05:24:21;;;;;;;;;;;;;;;-144.99;94.00;52382.88;5042347;28;19950;-71
2022/11/06 05:26:48;;;;;;;;;;;;;;;-144.99;93.45;52399.19;5050286;28;19944;-71
2022/11/06 05:29:14;;;;;;;;;;;;;;;-144.99;93.73;52413.44;5042509;28;20033;-70
2022/11/06 05:31:42;;;;;;;;;;;;;;;-144.99;94.01;52421.59;5047289;28;19967;-72
2022/11/06 05:34:09;;;;;;;;;;;;;;;-144.99;95.09;52439.94;5047212;28;19950;-71
2022/11/06 05:36:35;;;;;;;;;;;;;;;-144.99;97.79;52399.19;5048247;28;19950;-69
2022/11/06 05:39:01;;;;;;;;;;;;;;;-144.99;100.00;52413.44;5066742;28;19962;-69
2022/11/06 05:41:28;;;;;;;;;;;;;;;-144.99;100.00;52429.75;5066090;28;20417;-70
2022/11/06 05:43:54;;;;;;;;;;;;;;;-144.99;100.00;52411.41;5066907;28;20032;-70
2022/11/06 05:46:21;;;;;;;;;;;;;;;-144.99;100.00;52431.78;5067557;28;20054;-71
2022/11/06 05:48:48;;;;;;;;;;;;;;;-144.99;100.00;52421.59;5066684;28;19943;-69
2022/11/06 05:51:15;;;;;;;;;;;;;;;-144.99;100.00;52460.31;5065583;28;20014;-68
2022/11/06 05:53:41;;;;;;;;;;;;;;;-144.99;100.00;52413.44;5062548;28;20359;-70
2022/11/06 05:56:08;;;;;;;;;;;;;;;-144.99;100.00;52464.41;5047576;28;19990;-69
2022/11/06 05:58:34;;;;;;;;;;;;;;;-144.99;100.00;52407.31;5042105;28;19982;-68
2022/11/06 06:01:01;;;;;;;;;;;;;;;-144.99;100.00;52397.13;5046528;28;19973;-68
2022/11/06 06:03:27;;;;;;;;;;;;;;;-144.99;100.00;52452.16;5045307;28;19928;-68
2022/11/06 06:05:55;;;;;;;;;;;;;;;-144.99;100.00;52474.59;5046895;28;19957;-69
2022/11/06 06:08:22;;;;;;;;;;;;;;;-144.99;100.00;52419.56;5045977;28;20049;-69
2022/11/06 06:10:48;;;;;;;;;;;;;;;-144.99;100.00;52395.09;5049040;28;20154;-69
2022/11/06 06:13:15;;;;;;;;;;;;;;;-144.99;100.00;52439.94;5065880;28;20022;-69
2022/11/06 06:15:42;;;;;;;;;;;;;;;-144.99;100.00;52439.94;5066472;28;19932;-69
2022/11/06 06:18:09;;;;;;;;;;;;;;;-144.99;100.00;52448.09;5066003;28;19948;-68
2022/11/06 06:20:36;;;;;;;;;;;;;;;-144.99;100.00;52417.53;5066409;28;19975;-69
2022/11/06 06:23:04;;;;;;;;;;;;;;;-144.99;100.00;52452.16;5065277;28;19943;-69
2022/11/06 06:25:30;;;;;;;;;;;;;;;-144.99;100.00;52466.44;5040990;28;19998;-70
2022/11/06 06:27:57;;;;;;;;;;;;;;;-144.99;100.00;52452.16;5045861;28;20069;-70
2022/11/06 06:30:23;;;;;;;;;;;;;;;-144.99;100.00;52448.09;5045809;28;19966;-69
2022/11/06 06:32:50;;;;;;;;;;;;;;;-144.99;100.00;52421.59;5046145;28;20051;-67
2022/11/06 06:35:17;;;;;;;;;;;;;;;-144.99;100.00;52427.72;5046129;28;19956;-68
2022/11/06 06:37:43;;;;;;;;;;;;;;;-144.99;100.00;52427.72;5045381;28;20004;-68
2022/11/06 06:40:11;;;;;;;;;;;;;;;-144.99;100.00;52439.94;5045582;28;19969;-68
2022/11/06 06:42:38;;;;;;;;;;;;;;;-144.99;100.00;52460.31;5046631;28;19943;-68
2022/11/06 06:45:05;;;;;;;;;;;;;;;-144.99;100.00;52454.22;5045875;28;19972;-68
2022/11/06 06:47:31;;;;;;;;;;;;;;;-144.99;100.00;52460.31;5046151;28;20033;-69
2022/11/06 06:49:57;;;;;;;;;;;;;;;-144.99;100.00;52464.41;5045809;28;19962;-68
2022/11/06 06:52:24;;;;;;;;;;;;;;;-144.99;100.00;52439.94;5044561;28;20063;-68
2022/11/06 06:54:50;;;;;;;;;;;;;;;-144.99;100.00;52415.47;5035326;28;19926;-68
2022/11/06 06:57:18;;;;;;;;;;;;;;;-144.99;100.00;52448.09;5034985;28;19961;-70
2022/11/06 06:59:44;;;;;;;;;;;;;;;-144.99;100.00;52429.75;5061941;28;20381;-68
2022/11/06 07:02:11;;;;;;;;;;;;;;;-144.99;100.00;52444.03;5062801;28;19952;-68
2022/11/06 07:04:38;;;;;;;;;;;;;;;-144.99;100.00;52431.78;5045916;28;20209;-68
2022/11/06 07:07:05;;;;;;;;;;;;;;;-144.99;100.00;52395.09;5045084;28;19947;-68
2022/11/06 07:09:31;;;;;;;;;;;;;;;-144.99;100.00;52439.94;5047822;28;19956;-68
2022/11/06 07:11:58;;;;;;;;;;;;;;;-144.99;100.00;52423.63;5049893;28;20432;-68
2022/11/06 07:14:26;;;;;;;;;;;;;;;-144.99;100.00;52423.63;5049497;28;20003;-68
2022/11/06 07:16:52;;;;;;;;;;;;;;;-144.99;100.00;52399.19;5049952;28;20039;-70
2022/11/06 07:19:18;;;;;;;;;;;;;;;-144.99;100.00;52431.78;5049245;28;20066;-70
2022/11/06 07:21:45;;;;;;;;;;;;;;;-144.99;100.00;52476.63;5049745;28;19964;-68
2022/11/06 07:24:11;;;;;;;;;;;;;;;-144.99;100.00;52407.31;5048306;28;20042;-68
2022/11/06 07:26:38;;;;;;;;;;;;;;;-144.99;100.00;52456.25;5056364;28;19967;-69
2022/11/06 07:29:04;;;;;;;;;;;;;;;-144.99;100.00;52431.78;5049759;28;19939;-69
2022/11/06 07:31:32;;;;;;;;;;;;;;;-144.99;100.00;52391.03;5049412;28;20003;-69
2022/11/06 07:33:58;;;;;;;;;;;;;;;-144.99;100.00;52409.38;5054552;28;20378;-68
2022/11/06 07:36:25;;;;;;;;;;;;;;;-144.99;100.00;52444.03;5069808;28;19949;-69
2022/11/06 07:38:51;;;;;;;;;;;;;;;-144.99;100.00;52427.72;5068861;28;20064;-69
2022/11/06 07:41:18;;;;;;;;;;;;;;;-144.99;100.00;52452.16;5056403;28;20337;-69
2022/11/06 07:43:44;;;;;;;;;;;;;;;-144.99;100.00;52431.78;5048909;28;20043;-69
2022/11/06 07:46:12;;;;;;;;;;;;;;;-144.99;100.00;52403.25;5048994;28;19924;-68
2022/11/06 07:48:40;;;;;;;;;;;;;;;-144.99;100.00;52427.72;5049015;28;19954;-68
2022/11/06 07:51:08;;;;;;;;;;;;;;;-144.99;100.00;52413.44;5049389;28;19965;-69
2022/11/06 07:53:34;;;;;;;;;;;;;;;-144.99;100.00;52411.41;5048539;28;19949;-69
2022/11/06 07:56:01;;;;;;;;;;;;;;;-144.99;100.00;52468.47;5038219;28;19975;-69
2022/11/06 07:58:28;;;;;;;;;;;;;;;-144.99;100.00;52407.31;5044415;28;20001;-68
2022/11/06 08:00:55;;;;;;;;;;;;;;;-144.99;100.00;52464.41;5048198;28;20302;-68
2022/11/06 08:03:22;;;;;;;;;;;;;;;-144.99;100.00;52419.56;5047943;28;20451;-67
2022/11/06 08:05:50;;;;;;;;;;;;;;;-144.99;100.00;52382.88;5049127;28;20026;-68
2022/11/06 08:08:17;;;;;;;;;;;;;;;-144.99;100.00;52411.41;5048463;28;20453;-69
2022/11/06 08:10:43;;;;;;;;;;;;;;;-144.99;100.00;52437.91;5049002;28;20368;-67
2022/11/06 08:13:10;;;;;;;;;;;;;;;-144.99;100.00;52407.31;5048574;28;20412;-68
2022/11/06 08:15:37;;;;;;;;;;;;;;;-144.99;100.00;52452.16;5048767;28;19949;-68
2022/11/06 08:18:03;;;;;;;;;;;;;;;-144.99;100.00;52391.03;5049776;28;20039;-68
2022/11/06 08:20:30;;;;;;;;;;;;;;;-144.99;100.00;52433.81;5049124;28;19963;-67
2022/11/06 08:22:59;;;;;;;;;;;;;;;-144.99;100.00;52448.09;5048413;28;19967;-69
2022/11/06 08:25:26;;;;;;;;;;;;;;;-144.99;100.00;52423.63;5051576;28;19949;-68
2022/11/06 08:27:54;;;;;;;;;;;;;;;-144.99;100.00;52439.94;5055782;28;19929;-67
2022/11/06 08:30:20;;;;;;;;;;;;;;;-144.99;100.00;52452.16;5048142;28;19966;-68
2022/11/06 08:32:47;;;;;;;;;;;;;;;-144.99;100.00;52431.78;5047782;28;19973;-68
2022/11/06 08:35:13;;;;;;;;;;;;;;;-144.99;100.00;52460.31;5047856;28;19948;-69
2022/11/06 08:37:39;;;;;;;;;;;;;;;-144.99;100.00;52427.72;5047955;28;20019;-68
2022/11/06 08:40:08;;;;;;;;;;;;;;;-144.99;100.00;52425.66;5047584;28;20011;-68
2022/11/06 08:42:35;;;;;;;;;;;;;;;-144.99;100.00;52399.19;5048449;28;19965;-68
2022/11/06 08:45:01;;;;;;;;;;;;;;;-144.99;100.00;52415.47;5048106;28;19998;-70
2022/11/06 08:47:27;;;;;;;;;;;;;;;-144.99;100.00;52403.25;5048181;28;20410;-70
2022/11/06 08:49:54;;;;;;;;;;;;;;;-144.99;100.00;52421.59;5048299;28;19958;-70
2022/11/06 08:52:21;;;;;;;;;;;;;;;-144.99;100.00;52448.09;5046897;28;20367;-70
2022/11/06 08:54:47;;;;;;;;;;;;;;;-144.99;100.00;52407.31;5047779;28;20049;-69
2022/11/06 08:57:15;;;;;;;;;;;;;;;-144.99;100.00;52415.47;5046710;28;19965;-69
2022/11/06 08:59:41;;;;;;;;;;;;;;;-144.99;100.00;52399.19;5062881;28;19963;-68
2022/11/06 09:02:12;;;;;;;;;;;;;;;-144.99;100.00;52399.19;5064143;28;20335;-68
2022/11/06 09:04:38;;;;;;;;;;;;;;;-144.99;100.00;52415.47;5047348;28;19964;-69
2022/11/06 09:07:04;;;;;;;;;;;;;;;-144.99;100.00;52415.47;5046882;28;19935;-68
2022/11/06 09:09:31;;;;;;;;;;;;;;;-144.99;100.00;52395.09;5048111;28;19955;-68
2022/11/06 09:11:58;;;;;;;;;;;;;;;-144.99;100.00;52403.25;5047399;28;19963;-68
2022/11/06 09:14:26;;;;;;;;;;;;;;;-144.99;100.00;52407.31;5047628;28;19949;-69
2022/11/06 09:16:52;;;;;;;;;;;;;;;-144.99;100.00;52391.03;5047904;28;20326;-69
2022/11/06 09:19:19;;;;;;;;;;;;;;;-144.99;100.00;52427.72;5047064;28;20127;-69
2022/11/06 09:21:45;;;;;;;;;;;;;;;-144.99;100.00;52382.88;5047421;28;19968;-69
2022/11/06 09:24:12;;;;;;;;;;;;;;;-144.99;100.00;52415.47;5046815;28;20835;-70
2022/11/06 09:26:38;;;;;;;;;;;;;;;-144.99;100.00;52429.75;5055310;28;19945;-68
2022/11/06 09:29:05;;;;;;;;;;;;;;;-144.99;99.18;52366.56;5045837;28;19951;-68
2022/11/06 09:31:32;;;;;;;;;;;;;;;-144.99;97.99;52378.78;5047536;28;20038;-70
2022/11/06 09:33:59;;;;;;;;;;;;;;;-144.99;96.56;52384.91;5045412;28;19944;-71
2022/11/06 09:36:25;;;;;;;;;;;;;;;-144.99;95.79;52419.56;5048018;28;20268;-69
2022/11/06 09:38:52;;;;;;;;;;;;;;;-144.99;95.46;52380.84;5046601;28;20045;-71
2022/11/06 09:41:21;;;;;;;;;;;;;;;-144.99;94.69;52407.31;5046861;28;20391;-70
2022/11/06 09:43:52;;;;;;;;;;;;;;;-144.99;94.18;52409.38;5047378;28;19925;-68
2022/11/06 09:46:21;;;;;;;;;;;;;;;-144.99;93.87;52427.72;5047824;28;20347;-68
2022/11/06 09:48:52;;;;;;;;;;;;;;;-144.99;94.38;52405.28;5047058;28;20289;-69
2022/11/06 09:51:23;;;;;;;;;;;;;;;-144.99;92.82;52419.56;5047264;28;19983;-70
2022/11/06 09:53:52;;;;;;;;;;;;;;;-144.99;92.23;52362.50;5043877;28;19963;-70
2022/11/06 09:56:24;;;;;;;;;;;;;;;-144.99;90.28;52333.94;5048960;28;20011;-70
2022/11/06 09:58:52;;;;;;;;;;;;;;;-144.99;86.02;52391.03;5053549;28;20004;-70
2022/11/06 10:01:20;;;;;;;;;;;;;;;-144.99;84.15;52317.66;5066384;28;19995;-70
2022/11/06 10:03:51;;;;;;;;;;;;;;;-144.99;78.68;52293.19;5049829;28;19946;-69
2022/11/06 10:06:18;;;;;;;;;;;;;;;-144.99;72.41;52346.19;5048328;28;20063;-69
2022/11/06 10:08:44;;;;;;;;;;;;;;;-144.99;69.44;52195.34;5047138;28;20318;-71
2022/11/06 10:11:25;;;;;;;;;;;;;;;-144.99;64.60;52199.44;5066614;28;19966;-71
2022/11/06 10:13:56;;;;;;;;;;;;;;;-144.99;57.82;52158.66;5067514;28;20019;-72
2022/11/06 10:16:27;;;;;;;;;;;;;;;-144.99;56.14;52209.63;5058750;28;20029;-71
2022/11/06 10:18:59;;;;;;;;;;;;;;;-144.99;55.91;52211.66;5049783;28;20052;-71
2022/11/06 10:21:31;;;;;;;;;;;;;;;-144.99;57.25;52174.97;5066255;28;20051;-74
2022/11/06 10:23:59;;;;;;;;;;;;;;;-144.99;57.50;52268.72;5056407;28;20049;-72
2022/11/06 10:26:32;;;;;;;;;;;;;;;-144.99;56.94;52189.25;5037790;28;19962;-71
2022/11/06 10:29:17;;;;;;;;;;;;;;;-144.99;55.37;52162.75;5045906;28;19992;-70
2022/11/06 10:31:48;;;;;;;;;;;;;;;-144.99;53.77;52185.16;5039840;28;19968;-71
2022/11/06 10:34:17;;;;;;;;;;;;;;;-144.99;53.37;52258.53;5046231;28;20032;-71
2022/11/06 10:36:47;;;;;;;;;;;;;;;-144.99;54.27;52276.88;5046335;28;19949;-71
2022/11/06 10:39:15;;;;;;;;;;;;;;;-144.99;56.25;52366.56;5054877;28;20371;-70
2022/11/06 10:41:44;;;;;;;;;;;;;;;-144.99;59.98;52374.72;5077105;22;19975;-71
2022/11/06 10:44:16;;;;;;;;;;;;;;;-144.99;63.93;52409.38;5052894;28;19946;-73
2022/11/06 10:46:46;;;;;;;;;;;;;;;-144.99;68.50;52407.31;5054205;28;19925;-74
2022/11/06 10:49:15;;;;;;;;;;;;;;;-144.99;71.33;52378.78;5053708;28;19938;-73
2022/11/06 10:52:09;;;;;;;;;;;;;;;-144.99;74.81;52423.63;5051813;28;19960;-73
2022/11/06 10:54:42;;;;;;;;;;;;;;;-144.99;75.91;52374.72;5045633;28;19926;-74
2022/11/06 10:57:15;;;;;;;;;;;;;;;-144.99;75.34;52384.91;5044606;28;19927;-74
2022/11/06 10:59:42;;;;;;;;;;;;;;;-144.99;73.04;52338.03;5047854;28;19956;-73
2022/11/06 11:02:20;;;;;;;;;;;;;;;-144.99;71.37;52333.94;5036373;28;19963;-73
2022/11/06 11:04:46;;;;;;;;;;;;;;;-144.99;68.66;52333.94;5045031;28;19978;-74
2022/11/06 11:07:15;;;;;;;;;;;;;;;-144.99;65.37;52295.22;5056050;28;20003;-74
2022/11/06 11:09:41;;;;;;;;;;;;;;;-144.99;63.67;52340.06;5032324;28;19968;-73
2022/11/06 11:12:19;;;;;;;;;;;;;;;-144.99;63.28;52301.34;5051405;28;19991;-74
2022/11/06 11:15:03;;;;;;;;;;;;;;;-144.99;63.20;52280.97;5040983;28;20027;-73
2022/11/06 11:17:30;;;;;;;;;;;;;;;-144.99;60.48;52130.13;5034460;28;20027;-72
2022/11/06 11:19:56;;;;;;;;;;;;;;;-144.99;57.22;52158.66;5049253;28;20002;-72
2022/11/06 11:22:24;;;;;;;;;;;;;;;-144.99;54.65;52109.75;5048192;28;20059;-72
2022/11/06 11:25:01;;;;;;;;;;;;;;;-144.99;52.21;52093.44;5026445;28;19977;-72
2022/11/06 11:27:28;;;;;;;;;;;;;;;-144.99;50.90;52077.16;5013951;28;19943;-72
2022/11/06 11:29:56;;;;;;;;;;;;;;;-144.99;48.97;52232.03;5021010;28;19949;-72
2022/11/06 11:32:22;;;;;;;;;;;;;;;-144.99;49.97;52256.50;5029619;28;19971;-73
2022/11/06 11:34:50;;;;;;;;;;;;;;;-144.99;51.09;52268.72;5042171;28;19956;-74
2022/11/06 11:37:23;;;;;;;;;;;;;;;-144.99;52.97;52285.03;5028543;28;19994;-73
2022/11/06 11:39:51;;;;;;;;;;;;;;;-144.99;54.18;52350.25;5028304;28;19987;-74
2022/11/06 11:42:22;;;;;;;;;;;;;;;-144.99;55.46;52340.06;5035401;28;19965;-72
2022/11/06 11:45:06;;;;;;;;;;;;;;;-144.99;57.26;52382.88;5046845;28;20062;-72
2022/11/06 11:47:32;;;;;;;;;;;;;;;-144.99;58.99;52354.34;5035199;28;20017;-73
2022/11/06 11:50:17;;;;;;;;;;;;;;;-144.99;59.72;52352.28;5030707;28;20012;-71
2022/11/06 11:52:44;;;;;;;;;;;;;;;-144.99;60.48;52364.53;5017015;28;19929;-73
2022/11/06 11:55:16;;;;;;;;;;;;;;;-144.99;61.29;52354.34;5041071;28;19993;-73
2022/11/06 11:57:44;;;;;;;;;;;;;;;-144.99;62.34;52391.03;5028235;28;19948;-72
2022/11/06 12:00:14;;;;;;;;;;;;;;;-144.99;63.83;52374.72;5032744;28;20075;-73
2022/11/06 12:02:43;;;;;;;;;;;;;;;-144.99;65.47;52415.47;5032355;28;19933;-72
2022/11/06 12:05:12;;;;;;;;;;;;;;;-144.99;67.33;52391.03;5048539;28;19971;-71
2022/11/06 12:07:41;;;;;;;;;;;;;;;-144.99;67.45;52395.09;5060033;28;19990;-72
2022/11/06 12:10:16;;;;;;;;;;;;;;;-144.99;67.11;52395.09;5048350;28;20392;-72
2022/11/06 12:12:47;;;;;;;;;;;;;;;-144.99;68.41;52431.78;5040499;28;19980;-72
2022/11/06 12:15:19;;;;;;;;;;;;;;;-144.99;69.34;52391.03;5039407;28;19943;-72
2022/11/06 12:17:49;;;;;;;;;;;;;;;-144.99;70.13;52399.19;5039487;28;20003;-73
2022/11/06 12:20:19;;;;;;;;;;;;;;;-144.99;70.80;52431.78;5040261;28;20090;-72
2022/11/06 12:22:47;;;;;;;;;;;;;;;-144.99;71.03;52403.25;5041580;28;20011;-73
2022/11/06 12:25:16;;;;;;;;;;;;;;;-144.99;70.87;52419.56;5040779;28;19940;-74
2022/11/06 12:27:46;;;;;;;;;;;;;;;-144.99;70.98;52395.09;5033908;28;20337;-72
2022/11/06 12:30:14;;;;;;;;;;;;;;;-144.99;71.48;52413.44;5026087;28;20001;-73
2022/11/06 12:32:51;;;;;;;;;;;;;;;-144.99;72.22;52433.81;5045012;28;19949;-74
2022/11/06 12:35:21;;;;;;;;;;;;;;;-144.99;73.36;52437.91;5056170;28;20442;-73
2022/11/06 12:37:52;;;;;;;;;;;;;;;-144.99;73.66;52444.03;5037191;28;20044;-73
2022/11/06 12:40:22;;;;;;;;;;;;;;;-144.99;73.90;52431.78;5041920;28;20007;-73
2022/11/06 12:42:58;;;;;;;;;;;;;;;-144.99;73.04;52431.78;5058345;28;20004;-72